sensor_id;sensor_type;location;lat;lon;timestamp;P1;durP1;ratioP1;P2;durP2;ratioP2
21546;SDS011;41275;51.912;4.388;2023-05-07T00:01:43;20.05;;;10.73;;
21546;SDS011;41275;51.912;4.388;2023-05-07T00:07:04;15.80;;;9.75;;
21546;SDS011;41275;51.912;4.388;2023-05-07T00:12:26;17.35;;;9.98;;
21546;SDS011;41275;51.912;4.388;2023-05-07T00:17:47;15.83;;;9.57;;
21546;SDS011;41275;51.912;4.388;2023-05-07T00:23:08;16.58;;;9.98;;
21546;SDS011;41275;51.912;4.388;2023-05-07T00:28:30;16.17;;;10.52;;
21546;SDS011;41275;51.912;4.388;2023-05-07T00:33:51;19.70;;;11.77;;
21546;SDS011;41275;51.912;4.388;2023-05-07T00:39:12;19.08;;;13.10;;
21546;SDS011;41275;51.912;4.388;2023-05-07T00:44:33;21.73;;;14.43;;
21546;SDS011;41275;51.912;4.388;2023-05-07T00:49:54;19.77;;;14.10;;
21546;SDS011;41275;51.912;4.388;2023-05-07T00:55:17;24.47;;;14.57;;
21546;SDS011;41275;51.912;4.388;2023-05-07T01:00:42;21.77;;;14.40;;
21546;SDS011;41275;51.912;4.388;2023-05-07T01:06:03;22.63;;;14.25;;
21546;SDS011;41275;51.912;4.388;2023-05-07T01:11:26;21.25;;;13.90;;
21546;SDS011;41275;51.912;4.388;2023-05-07T01:16:48;20.77;;;12.93;;
21546;SDS011;41275;51.912;4.388;2023-05-07T01:22:11;19.75;;;13.30;;
21546;SDS011;41275;51.912;4.388;2023-05-07T01:27:36;19.60;;;12.50;;
21546;SDS011;41275;51.912;4.388;2023-05-07T01:32:59;20.65;;;13.20;;
21546;SDS011;41275;51.912;4.388;2023-05-07T01:38:24;18.90;;;13.30;;
21546;SDS011;41275;51.912;4.388;2023-05-07T01:43:48;19.80;;;12.80;;
21546;SDS011;41275;51.912;4.388;2023-05-07T01:49:10;19.23;;;12.95;;
21546;SDS011;41275;51.912;4.388;2023-05-07T01:54:32;20.37;;;12.57;;
21546;SDS011;41275;51.912;4.388;2023-05-07T01:59:53;19.42;;;12.27;;
21546;SDS011;41275;51.912;4.388;2023-05-07T02:05:14;17.53;;;12.13;;
21546;SDS011;41275;51.912;4.388;2023-05-07T02:10:35;19.00;;;12.05;;
21546;SDS011;41275;51.912;4.388;2023-05-07T02:15:57;18.20;;;12.27;;
21546;SDS011;41275;51.912;4.388;2023-05-07T02:21:18;18.67;;;11.60;;
21546;SDS011;41275;51.912;4.388;2023-05-07T02:26:39;17.93;;;11.77;;
21546;SDS011;41275;51.912;4.388;2023-05-07T02:32:02;16.42;;;10.70;;
21546;SDS011;41275;51.912;4.388;2023-05-07T02:37:23;17.10;;;10.90;;
21546;SDS011;41275;51.912;4.388;2023-05-07T02:42:44;14.98;;;9.98;;
21546;SDS011;41275;51.912;4.388;2023-05-07T02:48:08;15.43;;;9.40;;
21546;SDS011;41275;51.912;4.388;2023-05-07T02:53:29;18.67;;;9.40;;
21546;SDS011;41275;51.912;4.388;2023-05-07T02:58:50;14.30;;;10.13;;
21546;SDS011;41275;51.912;4.388;2023-05-07T03:04:11;13.93;;;9.37;;
21546;SDS011;41275;51.912;4.388;2023-05-07T03:09:33;11.98;;;8.20;;
21546;SDS011;41275;51.912;4.388;2023-05-07T03:14:54;14.48;;;8.38;;
21546;SDS011;41275;51.912;4.388;2023-05-07T03:20:15;10.70;;;7.85;;
21546;SDS011;41275;51.912;4.388;2023-05-07T03:25:37;12.73;;;8.25;;
21546;SDS011;41275;51.912;4.388;2023-05-07T03:30:58;11.38;;;7.63;;
21546;SDS011;41275;51.912;4.388;2023-05-07T03:36:19;11.23;;;7.85;;
21546;SDS011;41275;51.912;4.388;2023-05-07T03:41:41;11.88;;;7.57;;
21546;SDS011;41275;51.912;4.388;2023-05-07T03:47:02;10.45;;;6.72;;
21546;SDS011;41275;51.912;4.388;2023-05-07T03:52:24;11.63;;;7.10;;
21546;SDS011;41275;51.912;4.388;2023-05-07T03:57:46;11.07;;;6.53;;
21546;SDS011;41275;51.912;4.388;2023-05-07T04:03:07;10.57;;;6.60;;
21546;SDS011;41275;51.912;4.388;2023-05-07T04:08:29;11.15;;;6.63;;
21546;SDS011;41275;51.912;4.388;2023-05-07T04:13:50;9.47;;;6.23;;
21546;SDS011;41275;51.912;4.388;2023-05-07T04:19:11;11.93;;;7.05;;
21546;SDS011;41275;51.912;4.388;2023-05-07T04:24:33;11.13;;;6.55;;
21546;SDS011;41275;51.912;4.388;2023-05-07T04:29:54;10.43;;;6.95;;
21546;SDS011;41275;51.912;4.388;2023-05-07T04:35:16;10.10;;;6.80;;
21546;SDS011;41275;51.912;4.388;2023-05-07T04:40:38;12.35;;;6.63;;
21546;SDS011;41275;51.912;4.388;2023-05-07T04:45:59;10.27;;;6.93;;
21546;SDS011;41275;51.912;4.388;2023-05-07T04:51:21;11.38;;;7.00;;
21546;SDS011;41275;51.912;4.388;2023-05-07T04:56:42;10.30;;;6.87;;
21546;SDS011;41275;51.912;4.388;2023-05-07T05:02:03;10.85;;;7.25;;
21546;SDS011;41275;51.912;4.388;2023-05-07T05:07:25;11.25;;;7.28;;
21546;SDS011;41275;51.912;4.388;2023-05-07T05:12:46;9.50;;;6.70;;
21546;SDS011;41275;51.912;4.388;2023-05-07T05:18:07;10.65;;;6.57;;
21546;SDS011;41275;51.912;4.388;2023-05-07T05:23:28;10.00;;;6.87;;
21546;SDS011;41275;51.912;4.388;2023-05-07T05:28:49;11.77;;;6.95;;
21546;SDS011;41275;51.912;4.388;2023-05-07T05:34:11;12.47;;;7.73;;
21546;SDS011;41275;51.912;4.388;2023-05-07T05:39:32;11.93;;;7.25;;
21546;SDS011;41275;51.912;4.388;2023-05-07T05:44:53;12.18;;;7.15;;
21546;SDS011;41275;51.912;4.388;2023-05-07T05:50:14;10.80;;;7.10;;
21546;SDS011;41275;51.912;4.388;2023-05-07T05:55:35;11.45;;;7.55;;
21546;SDS011;41275;51.912;4.388;2023-05-07T06:00:57;9.93;;;7.47;;
21546;SDS011;41275;51.912;4.388;2023-05-07T06:06:18;12.20;;;7.83;;
21546;SDS011;41275;51.912;4.388;2023-05-07T06:11:40;14.23;;;8.60;;
21546;SDS011;41275;51.912;4.388;2023-05-07T06:17:01;14.63;;;8.32;;
21546;SDS011;41275;51.912;4.388;2023-05-07T06:22:23;11.30;;;8.20;;
21546;SDS011;41275;51.912;4.388;2023-05-07T06:27:44;13.57;;;8.33;;
21546;SDS011;41275;51.912;4.388;2023-05-07T06:33:05;13.98;;;8.43;;
21546;SDS011;41275;51.912;4.388;2023-05-07T06:38:26;14.67;;;9.27;;
21546;SDS011;41275;51.912;4.388;2023-05-07T06:43:47;12.05;;;8.40;;
21546;SDS011;41275;51.912;4.388;2023-05-07T06:49:12;11.60;;;8.30;;
21546;SDS011;41275;51.912;4.388;2023-05-07T06:54:34;12.65;;;8.30;;
21546;SDS011;41275;51.912;4.388;2023-05-07T06:59:56;12.52;;;7.90;;
21546;SDS011;41275;51.912;4.388;2023-05-07T07:05:17;11.00;;;6.97;;
21546;SDS011;41275;51.912;4.388;2023-05-07T07:10:38;10.82;;;6.50;;
21546;SDS011;41275;51.912;4.388;2023-05-07T07:15:59;11.47;;;7.10;;
21546;SDS011;41275;51.912;4.388;2023-05-07T07:21:21;9.65;;;6.25;;
21546;SDS011;41275;51.912;4.388;2023-05-07T07:26:42;11.07;;;6.07;;
21546;SDS011;41275;51.912;4.388;2023-05-07T07:32:03;11.43;;;6.10;;
21546;SDS011;41275;51.912;4.388;2023-05-07T07:37:24;12.15;;;6.55;;
21546;SDS011;41275;51.912;4.388;2023-05-07T07:42:46;10.70;;;7.10;;
21546;SDS011;41275;51.912;4.388;2023-05-07T07:48:07;13.02;;;7.03;;
21546;SDS011;41275;51.912;4.388;2023-05-07T07:53:28;13.70;;;7.47;;
21546;SDS011;41275;51.912;4.388;2023-05-07T07:58:50;12.80;;;7.45;;
21546;SDS011;41275;51.912;4.388;2023-05-07T08:04:11;9.73;;;6.60;;
21546;SDS011;41275;51.912;4.388;2023-05-07T08:09:32;11.50;;;7.63;;
21546;SDS011;41275;51.912;4.388;2023-05-07T08:14:53;12.50;;;7.40;;
21546;SDS011;41275;51.912;4.388;2023-05-07T08:20:15;12.88;;;6.93;;
21546;SDS011;41275;51.912;4.388;2023-05-07T08:25:36;11.00;;;6.65;;
21546;SDS011;41275;51.912;4.388;2023-05-07T08:30:58;10.13;;;6.22;;
21546;SDS011;41275;51.912;4.388;2023-05-07T08:36:21;10.03;;;5.23;;
21546;SDS011;41275;51.912;4.388;2023-05-07T08:41:44;10.45;;;5.07;;
21546;SDS011;41275;51.912;4.388;2023-05-07T08:47:07;10.57;;;4.75;;
21546;SDS011;41275;51.912;4.388;2023-05-07T08:52:28;8.43;;;4.90;;
21546;SDS011;41275;51.912;4.388;2023-05-07T08:57:49;9.90;;;4.43;;
21546;SDS011;41275;51.912;4.388;2023-05-07T09:03:11;8.38;;;4.80;;
21546;SDS011;41275;51.912;4.388;2023-05-07T09:08:33;8.98;;;4.93;;
21546;SDS011;41275;51.912;4.388;2023-05-07T09:13:56;7.78;;;4.50;;
21546;SDS011;41275;51.912;4.388;2023-05-07T09:19:23;9.65;;;4.90;;
21546;SDS011;41275;51.912;4.388;2023-05-07T09:24:49;10.48;;;6.20;;
21546;SDS011;41275;51.912;4.388;2023-05-07T09:30:10;12.35;;;6.30;;
21546;SDS011;41275;51.912;4.388;2023-05-07T09:35:32;9.30;;;5.80;;
21546;SDS011;41275;51.912;4.388;2023-05-07T09:41:10;8.82;;;5.60;;
21546;SDS011;41275;51.912;4.388;2023-05-07T09:46:32;9.88;;;5.30;;
21546;SDS011;41275;51.912;4.388;2023-05-07T09:51:57;7.20;;;4.57;;
21546;SDS011;41275;51.912;4.388;2023-05-07T09:57:20;7.77;;;4.40;;
21546;SDS011;41275;51.912;4.388;2023-05-07T10:02:43;8.63;;;4.30;;
21546;SDS011;41275;51.912;4.388;2023-05-07T10:08:09;9.02;;;3.63;;
21546;SDS011;41275;51.912;4.388;2023-05-07T10:13:31;8.83;;;3.67;;
21546;SDS011;41275;51.912;4.388;2023-05-07T10:18:55;7.63;;;3.80;;
21546;SDS011;41275;51.912;4.388;2023-05-07T10:24:19;9.17;;;3.50;;
21546;SDS011;41275;51.912;4.388;2023-05-07T10:35:29;9.00;;;3.67;;
21546;SDS011;41275;51.912;4.388;2023-05-07T10:40:52;12.13;;;4.50;;
21546;SDS011;41275;51.912;4.388;2023-05-07T10:46:15;11.13;;;4.40;;
21546;SDS011;41275;51.912;4.388;2023-05-07T10:51:37;10.83;;;4.47;;
21546;SDS011;41275;51.912;4.388;2023-05-07T10:56:59;8.95;;;4.70;;
21546;SDS011;41275;51.912;4.388;2023-05-07T11:08:22;10.85;;;4.55;;
21546;SDS011;41275;51.912;4.388;2023-05-07T11:13:44;10.20;;;4.85;;
21546;SDS011;41275;51.912;4.388;2023-05-07T11:19:11;8.48;;;4.70;;
21546;SDS011;41275;51.912;4.388;2023-05-07T11:24:37;9.90;;;5.30;;
21546;SDS011;41275;51.912;4.388;2023-05-07T11:30:00;11.33;;;5.57;;
21546;SDS011;41275;51.912;4.388;2023-05-07T11:35:22;8.60;;;5.13;;
21546;SDS011;41275;51.912;4.388;2023-05-07T11:40:50;10.93;;;5.65;;
21546;SDS011;41275;51.912;4.388;2023-05-07T11:46:19;8.70;;;5.70;;
21546;SDS011;41275;51.912;4.388;2023-05-07T11:51:40;11.20;;;6.65;;
21546;SDS011;41275;51.912;4.388;2023-05-07T11:57:02;14.77;;;7.93;;
21546;SDS011;41275;51.912;4.388;2023-05-07T12:02:24;10.52;;;6.85;;
21546;SDS011;41275;51.912;4.388;2023-05-07T12:07:46;12.27;;;6.65;;
21546;SDS011;41275;51.912;4.388;2023-05-07T12:13:17;10.47;;;6.10;;
21546;SDS011;41275;51.912;4.388;2023-05-07T12:18:39;7.93;;;4.70;;
21546;SDS011;41275;51.912;4.388;2023-05-07T12:24:01;9.55;;;4.72;;
21546;SDS011;41275;51.912;4.388;2023-05-07T12:29:22;9.77;;;5.38;;
21546;SDS011;41275;51.912;4.388;2023-05-07T12:34:44;12.65;;;6.32;;
21546;SDS011;41275;51.912;4.388;2023-05-07T12:40:09;10.60;;;6.88;;
21546;SDS011;41275;51.912;4.388;2023-05-07T12:45:35;12.80;;;6.90;;
21546;SDS011;41275;51.912;4.388;2023-05-07T12:50:59;23.08;;;11.32;;
21546;SDS011;41275;51.912;4.388;2023-05-07T12:56:21;16.70;;;9.35;;
21546;SDS011;41275;51.912;4.388;2023-05-07T13:01:44;16.30;;;9.77;;
21546;SDS011;41275;51.912;4.388;2023-05-07T13:07:05;18.85;;;10.43;;
21546;SDS011;41275;51.912;4.388;2023-05-07T13:12:26;16.40;;;10.15;;
21546;SDS011;41275;51.912;4.388;2023-05-07T13:17:48;18.77;;;10.52;;
21546;SDS011;41275;51.912;4.388;2023-05-07T13:23:09;16.10;;;10.23;;
21546;SDS011;41275;51.912;4.388;2023-05-07T13:28:30;21.70;;;10.10;;
21546;SDS011;41275;51.912;4.388;2023-05-07T13:33:51;19.10;;;11.30;;
21546;SDS011;41275;51.912;4.388;2023-05-07T13:39:15;20.02;;;11.90;;
21546;SDS011;41275;51.912;4.388;2023-05-07T13:44:36;21.95;;;13.35;;
21546;SDS011;41275;51.912;4.388;2023-05-07T13:49:57;17.37;;;10.10;;
21546;SDS011;41275;51.912;4.388;2023-05-07T13:55:19;21.27;;;12.47;;
21546;SDS011;41275;51.912;4.388;2023-05-07T14:00:41;17.93;;;10.60;;
21546;SDS011;41275;51.912;4.388;2023-05-07T14:06:03;18.55;;;11.38;;
21546;SDS011;41275;51.912;4.388;2023-05-07T14:11:24;19.43;;;11.60;;
21546;SDS011;41275;51.912;4.388;2023-05-07T14:16:45;18.67;;;11.30;;
21546;SDS011;41275;51.912;4.388;2023-05-07T14:22:07;18.83;;;11.52;;
21546;SDS011;41275;51.912;4.388;2023-05-07T14:27:28;20.17;;;12.73;;
21546;SDS011;41275;51.912;4.388;2023-05-07T14:32:49;23.60;;;10.73;;
21546;SDS011;41275;51.912;4.388;2023-05-07T14:38:11;20.45;;;12.90;;
21546;SDS011;41275;51.912;4.388;2023-05-07T14:43:32;25.63;;;13.23;;
21546;SDS011;41275;51.912;4.388;2023-05-07T14:48:53;27.87;;;14.03;;
21546;SDS011;41275;51.912;4.388;2023-05-07T14:54:18;26.20;;;16.25;;
21546;SDS011;41275;51.912;4.388;2023-05-07T14:59:39;28.08;;;15.75;;
21546;SDS011;41275;51.912;4.388;2023-05-07T15:05:00;29.43;;;14.93;;
21546;SDS011;41275;51.912;4.388;2023-05-07T15:10:21;31.10;;;15.90;;
21546;SDS011;41275;51.912;4.388;2023-05-07T15:15:43;29.85;;;14.57;;
21546;SDS011;41275;51.912;4.388;2023-05-07T15:21:05;29.50;;;15.65;;
21546;SDS011;41275;51.912;4.388;2023-05-07T15:26:26;28.80;;;16.13;;
21546;SDS011;41275;51.912;4.388;2023-05-07T15:31:48;28.73;;;15.88;;
21546;SDS011;41275;51.912;4.388;2023-05-07T15:37:09;28.30;;;15.75;;
21546;SDS011;41275;51.912;4.388;2023-05-07T15:42:30;30.43;;;16.27;;
21546;SDS011;41275;51.912;4.388;2023-05-07T15:47:51;33.03;;;16.75;;
21546;SDS011;41275;51.912;4.388;2023-05-07T15:53:13;31.58;;;17.98;;
21546;SDS011;41275;51.912;4.388;2023-05-07T15:58:34;29.37;;;16.83;;
21546;SDS011;41275;51.912;4.388;2023-05-07T16:03:56;27.53;;;15.83;;
21546;SDS011;41275;51.912;4.388;2023-05-07T16:09:17;29.35;;;15.93;;
21546;SDS011;41275;51.912;4.388;2023-05-07T16:14:38;29.17;;;16.30;;
21546;SDS011;41275;51.912;4.388;2023-05-07T16:20:00;27.48;;;16.52;;
21546;SDS011;41275;51.912;4.388;2023-05-07T16:25:22;29.10;;;16.33;;
21546;SDS011;41275;51.912;4.388;2023-05-07T16:30:43;29.48;;;17.70;;
21546;SDS011;41275;51.912;4.388;2023-05-07T16:36:05;28.13;;;17.07;;
21546;SDS011;41275;51.912;4.388;2023-05-07T16:41:26;26.03;;;17.13;;
21546;SDS011;41275;51.912;4.388;2023-05-07T16:46:48;28.33;;;16.37;;
21546;SDS011;41275;51.912;4.388;2023-05-07T16:52:10;22.50;;;11.93;;
21546;SDS011;41275;51.912;4.388;2023-05-07T16:57:31;18.00;;;9.50;;
21546;SDS011;41275;51.912;4.388;2023-05-07T17:02:52;25.00;;;13.20;;
21546;SDS011;41275;51.912;4.388;2023-05-07T17:08:13;17.90;;;9.73;;
21546;SDS011;41275;51.912;4.388;2023-05-07T17:13:35;18.65;;;11.05;;
21546;SDS011;41275;51.912;4.388;2023-05-07T17:18:57;16.83;;;9.77;;
21546;SDS011;41275;51.912;4.388;2023-05-07T17:24:18;20.25;;;9.52;;
21546;SDS011;41275;51.912;4.388;2023-05-07T17:29:39;17.13;;;9.15;;
21546;SDS011;41275;51.912;4.388;2023-05-07T17:35:00;16.97;;;7.03;;
21546;SDS011;41275;51.912;4.388;2023-05-07T17:40:21;10.82;;;4.70;;
21546;SDS011;41275;51.912;4.388;2023-05-07T17:45:43;8.65;;;3.92;;
21546;SDS011;41275;51.912;4.388;2023-05-07T17:51:04;11.77;;;3.78;;
21546;SDS011;41275;51.912;4.388;2023-05-07T17:56:25;9.40;;;3.50;;
21546;SDS011;41275;51.912;4.388;2023-05-07T18:01:46;11.33;;;4.27;;
21546;SDS011;41275;51.912;4.388;2023-05-07T18:07:08;11.48;;;4.68;;
21546;SDS011;41275;51.912;4.388;2023-05-07T18:12:29;11.02;;;4.75;;
21546;SDS011;41275;51.912;4.388;2023-05-07T18:17:50;12.45;;;5.30;;
21546;SDS011;41275;51.912;4.388;2023-05-07T18:23:12;15.18;;;5.82;;
21546;SDS011;41275;51.912;4.388;2023-05-07T18:28:33;12.85;;;5.60;;
21546;SDS011;41275;51.912;4.388;2023-05-07T18:33:54;12.07;;;5.83;;
21546;SDS011;41275;51.912;4.388;2023-05-07T18:39:15;15.70;;;6.27;;
21546;SDS011;41275;51.912;4.388;2023-05-07T18:44:37;14.27;;;6.47;;
21546;SDS011;41275;51.912;4.388;2023-05-07T18:49:58;14.57;;;6.70;;
21546;SDS011;41275;51.912;4.388;2023-05-07T18:55:20;12.70;;;7.00;;
21546;SDS011;41275;51.912;4.388;2023-05-07T19:00:42;16.42;;;7.28;;
21546;SDS011;41275;51.912;4.388;2023-05-07T19:06:03;15.88;;;7.82;;
21546;SDS011;41275;51.912;4.388;2023-05-07T19:11:25;20.60;;;8.05;;
21546;SDS011;41275;51.912;4.388;2023-05-07T19:16:46;17.75;;;8.23;;
21546;SDS011;41275;51.912;4.388;2023-05-07T19:22:08;16.83;;;8.57;;
21546;SDS011;41275;51.912;4.388;2023-05-07T19:27:29;16.67;;;8.50;;
21546;SDS011;41275;51.912;4.388;2023-05-07T19:32:50;20.30;;;8.63;;
21546;SDS011;41275;51.912;4.388;2023-05-07T19:38:11;17.83;;;8.38;;
21546;SDS011;41275;51.912;4.388;2023-05-07T19:43:32;15.00;;;8.10;;
21546;SDS011;41275;51.912;4.388;2023-05-07T19:48:57;19.37;;;9.27;;
21546;SDS011;41275;51.912;4.388;2023-05-07T19:54:19;18.20;;;9.45;;
21546;SDS011;41275;51.912;4.388;2023-05-07T19:59:40;16.25;;;9.20;;
21546;SDS011;41275;51.912;4.388;2023-05-07T20:05:01;19.13;;;9.93;;
21546;SDS011;41275;51.912;4.388;2023-05-07T20:10:23;16.17;;;9.40;;
21546;SDS011;41275;51.912;4.388;2023-05-07T20:15:44;20.95;;;10.57;;
21546;SDS011;41275;51.912;4.388;2023-05-07T20:21:06;23.67;;;10.77;;
21546;SDS011;41275;51.912;4.388;2023-05-07T20:26:27;20.75;;;11.60;;
21546;SDS011;41275;51.912;4.388;2023-05-07T20:31:48;20.80;;;10.90;;
21546;SDS011;41275;51.912;4.388;2023-05-07T20:37:12;22.03;;;11.57;;
21546;SDS011;41275;51.912;4.388;2023-05-07T20:42:34;20.98;;;11.52;;
21546;SDS011;41275;51.912;4.388;2023-05-07T20:47:56;22.37;;;11.50;;
21546;SDS011;41275;51.912;4.388;2023-05-07T20:53:17;20.42;;;11.00;;
21546;SDS011;41275;51.912;4.388;2023-05-07T20:58:38;19.40;;;10.95;;
21546;SDS011;41275;51.912;4.388;2023-05-07T21:03:59;21.27;;;12.30;;
21546;SDS011;41275;51.912;4.388;2023-05-07T21:09:21;21.07;;;12.53;;
21546;SDS011;41275;51.912;4.388;2023-05-07T21:14:42;23.42;;;12.88;;
21546;SDS011;41275;51.912;4.388;2023-05-07T21:20:04;21.10;;;11.50;;
21546;SDS011;41275;51.912;4.388;2023-05-07T21:25:25;26.17;;;12.07;;
21546;SDS011;41275;51.912;4.388;2023-05-07T21:30:46;21.38;;;12.45;;
21546;SDS011;41275;51.912;4.388;2023-05-07T21:36:08;22.93;;;11.63;;
21546;SDS011;41275;51.912;4.388;2023-05-07T21:41:30;21.67;;;12.57;;
21546;SDS011;41275;51.912;4.388;2023-05-07T21:46:51;23.77;;;12.65;;
21546;SDS011;41275;51.912;4.388;2023-05-07T21:52:14;24.88;;;14.43;;
21546;SDS011;41275;51.912;4.388;2023-05-07T21:57:36;31.20;;;17.67;;
21546;SDS011;41275;51.912;4.388;2023-05-07T22:02:59;30.63;;;19.15;;
21546;SDS011;41275;51.912;4.388;2023-05-07T22:08:20;31.10;;;19.13;;
21546;SDS011;41275;51.912;4.388;2023-05-07T22:13:42;30.98;;;18.15;;
21546;SDS011;41275;51.912;4.388;2023-05-07T22:19:03;34.88;;;18.45;;
21546;SDS011;41275;51.912;4.388;2023-05-07T22:24:24;30.83;;;18.70;;
21546;SDS011;41275;51.912;4.388;2023-05-07T22:29:46;32.33;;;18.92;;
21546;SDS011;41275;51.912;4.388;2023-05-07T22:35:07;27.63;;;17.93;;
21546;SDS011;41275;51.912;4.388;2023-05-07T22:40:29;31.33;;;18.10;;
21546;SDS011;41275;51.912;4.388;2023-05-07T22:45:57;31.70;;;18.98;;
21546;SDS011;41275;51.912;4.388;2023-05-07T22:51:20;33.90;;;20.50;;
21546;SDS011;41275;51.912;4.388;2023-05-07T22:56:41;37.60;;;22.27;;
21546;SDS011;41275;51.912;4.388;2023-05-07T23:02:03;38.00;;;23.30;;
21546;SDS011;41275;51.912;4.388;2023-05-07T23:07:24;41.28;;;24.63;;
21546;SDS011;41275;51.912;4.388;2023-05-07T23:12:45;44.55;;;26.45;;
21546;SDS011;41275;51.912;4.388;2023-05-07T23:18:09;43.60;;;26.95;;
21546;SDS011;41275;51.912;4.388;2023-05-07T23:23:32;46.63;;;28.00;;
21546;SDS011;41275;51.912;4.388;2023-05-07T23:28:54;50.10;;;29.90;;
21546;SDS011;41275;51.912;4.388;2023-05-07T23:34:15;50.63;;;30.63;;
21546;SDS011;41275;51.912;4.388;2023-05-07T23:39:43;52.90;;;32.47;;
21546;SDS011;41275;51.912;4.388;2023-05-07T23:45:04;52.30;;;31.90;;
21546;SDS011;41275;51.912;4.388;2023-05-07T23:50:26;51.83;;;31.60;;
21546;SDS011;41275;51.912;4.388;2023-05-07T23:55:47;54.15;;;31.40;;
